createdAt,value
2019-05-07T00:00:09.017Z,69.45
2019-05-07T00:02:36.237Z,69.36
2019-05-07T00:05:03.282Z,69.41
2019-05-07T00:07:31.930Z,69.43
2019-05-07T00:09:59.235Z,69.57
2019-05-07T00:12:26.287Z,69.44
2019-05-07T00:15:00.900Z,69.62
2019-05-07T00:17:22.956Z,69.58
2019-05-07T00:19:50.027Z,69.61
2019-05-07T00:22:17.344Z,69.71
2019-05-07T00:24:44.630Z,69.55
2019-05-07T00:27:13.137Z,69.66
2019-05-07T00:29:42.703Z,69.77
2019-05-07T00:32:09.207Z,70.12
2019-05-07T00:34:36.495Z,70.19
2019-05-07T00:37:06.765Z,70.18
2019-05-07T00:39:32.914Z,69.99
2019-05-07T00:42:00.192Z,70.22
2019-05-07T00:44:27.498Z,70.09
2019-05-07T00:46:54.785Z,70.09
2019-05-07T00:49:22.212Z,70.02
2019-05-07T00:51:49.203Z,70.09
2019-05-07T00:54:16.479Z,70.11
2019-05-07T00:56:43.781Z,69.98
2019-05-07T00:59:13.116Z,70.25
2019-05-07T01:01:39.806Z,70.75
2019-05-07T01:04:07.091Z,70.78
2019-05-07T01:06:34.397Z,71.13
2019-05-07T01:09:03.173Z,71.89
2019-05-07T01:11:33.291Z,72.16
2019-05-07T01:13:59.867Z,71.79
2019-05-07T01:16:26.903Z,71.62
2019-05-07T01:18:54.215Z,71.55
2019-05-07T01:21:22.720Z,71.49
2019-05-07T01:23:52.173Z,71.62
2019-05-07T01:26:18.843Z,71.75
2019-05-07T01:28:46.134Z,71.75
2019-05-07T01:31:13.412Z,71.85
2019-05-07T01:33:42.360Z,71.83
2019-05-07T01:36:09.756Z,72.02
2019-05-07T01:38:37.048Z,72.21
2019-05-07T01:41:04.082Z,72.46
2019-05-07T01:43:32.135Z,72.48
2019-05-07T01:45:59.198Z,72.54
2019-05-07T01:48:26.510Z,72.57
2019-05-07T01:50:53.546Z,72.48
2019-05-07T01:53:22.666Z,72.27
2019-05-07T01:55:49.576Z,72.39
2019-05-07T01:58:16.878Z,72.35
2019-05-07T02:00:44.165Z,72.38
2019-05-07T02:03:12.128Z,72.38
2019-05-07T02:05:42.378Z,72.49
2019-05-07T02:08:12.322Z,72.65
2019-05-07T02:10:39.388Z,72.65
2019-05-07T02:13:06.440Z,72.53
2019-05-07T02:15:33.714Z,72.44
2019-05-07T02:18:01.934Z,72.56
2019-05-07T02:20:29.140Z,72.76
2019-05-07T02:22:56.174Z,72.57
2019-05-07T02:25:23.470Z,72.56
2019-05-07T02:27:52.638Z,72.41
2019-05-07T02:30:19.500Z,72.31
2019-05-07T02:32:46.809Z,72.27
2019-05-07T02:35:14.086Z,72.33
2019-05-07T02:37:48.333Z,72.17
2019-05-07T02:40:13.946Z,71.94
2019-05-07T02:42:39.179Z,72.02
2019-05-07T02:45:06.230Z,72.00
2019-05-07T02:47:33.520Z,71.90
2019-05-07T02:50:03.034Z,71.84
2019-05-07T02:52:32.328Z,71.92
2019-05-07T02:54:58.734Z,71.94
2019-05-07T02:57:26.036Z,71.68
2019-05-07T02:59:54.357Z,71.71
2019-05-07T03:02:24.059Z,71.67
2019-05-07T03:04:53.293Z,71.75
2019-05-07T03:07:19.643Z,71.70
2019-05-07T03:09:47.921Z,71.66
2019-05-07T03:12:15.333Z,71.66
2019-05-07T03:14:43.760Z,71.60
2019-05-07T03:17:13.309Z,71.59
2019-05-07T03:19:42.779Z,71.54
2019-05-07T03:22:09.066Z,71.66
2019-05-07T03:24:36.121Z,71.83
2019-05-07T03:27:03.492Z,71.97
2019-05-07T03:29:33.379Z,72.62
2019-05-07T03:32:05.518Z,72.58
2019-05-07T03:34:28.611Z,73.08
2019-05-07T03:36:57.425Z,73.20
2019-05-07T03:39:24.789Z,73.52
2019-05-07T03:41:53.147Z,73.60
2019-05-07T03:44:23.885Z,73.87
2019-05-07T03:46:57.730Z,74.23
2019-05-07T03:49:19.289Z,74.26
2019-05-07T03:51:46.339Z,74.33
2019-05-07T03:54:14.519Z,74.76
2019-05-07T03:56:43.594Z,75.22
2019-05-07T03:59:12.990Z,75.65
2019-05-07T04:01:39.377Z,75.49
2019-05-07T04:04:06.419Z,75.12
2019-05-07T04:06:33.734Z,74.06
2019-05-07T04:09:03.370Z,72.55
2019-05-07T04:14:09.501Z,69.30
2019-05-07T04:16:39.887Z,67.50
2019-05-07T04:19:07.185Z,65.38
2019-05-07T04:21:34.546Z,62.63
2019-05-07T04:24:03.530Z,60.35
2019-05-07T04:26:33.942Z,57.46
2019-05-07T04:28:59.776Z,53.80
2019-05-07T04:31:26.793Z,52.47
2019-05-07T04:33:53.849Z,49.72
2019-05-07T04:36:22.986Z,47.84
2019-05-07T04:38:52.905Z,46.13
2019-05-07T04:41:18.743Z,42.07
2019-05-07T04:43:46.093Z,40.44
2019-05-07T04:46:14.371Z,37.11
2019-05-07T04:48:43.991Z,35.86
2019-05-07T04:51:12.640Z,36.67
2019-05-07T04:53:42.679Z,35.61
2019-05-07T04:56:10.221Z,33.92
2019-05-07T04:58:37.270Z,32.13
2019-05-07T05:01:04.318Z,32.00
2019-05-07T05:03:34.577Z,32.37
2019-05-07T05:06:02.645Z,33.42
2019-05-07T05:08:32.310Z,34.74
2019-05-07T05:10:58.656Z,37.00
2019-05-07T05:13:25.661Z,39.72
2019-05-07T05:15:52.989Z,38.58
2019-05-07T05:18:21.908Z,36.28
2019-05-07T05:20:49.508Z,34.31
2019-05-07T05:23:16.837Z,32.95
2019-05-07T05:25:44.217Z,31.39
2019-05-07T05:28:12.364Z,31.14
2019-05-07T05:30:42.261Z,31.68
2019-05-07T05:33:08.621Z,31.30
2019-05-07T05:35:36.013Z,32.20
2019-05-07T05:38:03.328Z,33.25
2019-05-07T05:40:31.956Z,35.08
2019-05-07T05:42:59.149Z,36.68
2019-05-07T05:45:26.644Z,37.87
2019-05-07T05:48:03.931Z,37.87
2019-05-07T05:50:23.196Z,37.87
2019-05-07T05:52:52.021Z,36.47
2019-05-07T05:55:19.444Z,35.54
2019-05-07T05:57:46.779Z,33.01
2019-05-07T06:00:14.158Z,29.67
2019-05-07T06:02:44.103Z,26.96
2019-05-07T06:05:12.502Z,25.81
2019-05-07T06:07:39.356Z,24.17
2019-05-07T06:10:06.401Z,23.20
2019-05-07T06:12:33.809Z,22.79
2019-05-07T06:15:01.771Z,21.53
2019-05-07T06:17:29.226Z,21.65
2019-05-07T06:19:56.595Z,21.33
2019-05-07T06:22:23.932Z,21.57
2019-05-07T06:24:52.119Z,22.92
2019-05-07T06:27:19.222Z,23.27
2019-05-07T06:29:46.255Z,23.96
2019-05-07T06:32:13.558Z,23.91
2019-05-07T06:34:44.253Z,23.82
2019-05-07T06:37:11.843Z,23.44
2019-05-07T06:39:38.963Z,23.05
2019-05-07T06:42:06.358Z,24.20
2019-05-07T06:44:33.736Z,24.39
2019-05-07T06:47:02.494Z,25.35
2019-05-07T06:49:32.281Z,24.57
2019-05-07T06:51:59.057Z,23.97
2019-05-07T06:54:26.428Z,25.42
2019-05-07T06:56:53.765Z,25.31
2019-05-07T06:59:22.464Z,25.53
2019-05-07T07:01:50.013Z,26.99
2019-05-07T07:04:17.387Z,28.20
2019-05-07T07:06:44.745Z,29.54
2019-05-07T07:09:12.666Z,30.89
2019-05-07T07:11:42.300Z,31.97
2019-05-07T07:14:09.113Z,33.12
2019-05-07T07:16:36.147Z,33.26
2019-05-07T07:19:03.458Z,33.87
2019-05-07T07:21:32.707Z,33.78
2019-05-07T07:24:02.871Z,33.65
2019-05-07T07:26:29.809Z,33.61
2019-05-07T07:28:57.162Z,32.82
2019-05-07T07:31:26.248Z,33.13
2019-05-07T07:33:53.717Z,33.21
2019-05-07T07:36:22.514Z,31.92
2019-05-07T07:38:50.068Z,31.71
2019-05-07T07:41:17.419Z,32.56
2019-05-07T07:43:44.481Z,34.17
2019-05-07T07:46:13.181Z,32.77
2019-05-07T07:48:43.344Z,32.95
2019-05-07T07:51:09.625Z,32.85
2019-05-07T07:53:36.633Z,32.56
2019-05-07T07:56:03.683Z,33.78
2019-05-07T07:58:34.166Z,33.85
2019-05-07T08:01:02.776Z,34.95
2019-05-07T08:03:29.531Z,34.07
2019-05-07T08:05:56.913Z,33.07
2019-05-07T08:08:24.266Z,31.42
2019-05-07T08:10:52.031Z,30.61
2019-05-07T08:13:19.130Z,30.08
2019-05-07T08:15:46.545Z,31.37
2019-05-07T08:18:13.901Z,33.02
2019-05-07T08:20:43.026Z,32.27
2019-05-07T08:23:12.194Z,33.01
2019-05-07T08:25:38.987Z,33.76
2019-05-07T08:28:06.381Z,33.94
2019-05-07T08:30:33.738Z,33.42
2019-05-07T08:33:02.163Z,34.58
2019-05-07T08:35:29.676Z,34.83
2019-05-07T08:38:03.585Z,36.06
2019-05-07T08:40:32.551Z,36.80
2019-05-07T08:42:59.749Z,35.06
2019-05-07T08:45:27.111Z,34.22
2019-05-07T08:47:54.439Z,34.82
2019-05-07T08:50:22.262Z,34.73
2019-05-07T08:52:49.357Z,34.72
2019-05-07T08:55:16.417Z,35.25
2019-05-07T08:57:45.929Z,34.47
2019-05-07T09:00:12.761Z,35.03
2019-05-07T09:02:41.909Z,35.86
2019-05-07T09:05:09.348Z,35.87
2019-05-07T09:07:37.508Z,35.10
2019-05-07T09:10:04.549Z,35.00
2019-05-07T09:12:31.972Z,34.95
2019-05-07T09:15:02.112Z,34.58
2019-05-07T09:17:29.065Z,34.30
2019-05-07T09:19:56.097Z,34.31
2019-05-07T09:22:23.475Z,33.68
2019-05-07T09:24:52.540Z,31.87
2019-05-07T09:27:22.161Z,30.72
2019-05-07T09:29:48.997Z,29.66
2019-05-07T09:32:16.357Z,26.94
2019-05-07T09:34:43.399Z,25.58
2019-05-07T09:37:12.363Z,24.73
2019-05-07T09:39:39.201Z,24.35
2019-05-07T09:42:06.250Z,24.46
2019-05-07T09:44:33.641Z,23.12
2019-05-07T09:47:02.622Z,23.64
2019-05-07T09:49:30.079Z,25.43
2019-05-07T09:51:57.451Z,26.35
2019-05-07T09:54:25.465Z,24.66
2019-05-07T09:56:52.875Z,25.37
2019-05-07T09:59:21.727Z,25.41
2019-05-07T10:01:48.671Z,27.03
2019-05-07T10:04:15.713Z,27.77
2019-05-07T10:06:42.763Z,28.47
2019-05-07T10:09:12.001Z,28.42
2019-05-07T10:11:38.908Z,29.08
2019-05-07T10:14:06.309Z,29.64
2019-05-07T10:16:33.351Z,29.31
2019-05-07T10:19:00.402Z,29.25
2019-05-07T10:21:27.759Z,29.27
2019-05-07T10:23:55.114Z,28.33
2019-05-07T10:26:22.675Z,28.59
2019-05-07T10:28:50.131Z,28.70
2019-05-07T10:31:17.178Z,28.84
2019-05-07T10:33:44.550Z,27.88
2019-05-07T10:36:12.533Z,26.53
2019-05-07T10:38:39.626Z,24.51
2019-05-07T10:41:06.665Z,22.65
2019-05-07T10:43:33.718Z,22.32
2019-05-07T10:46:02.371Z,23.87
2019-05-07T10:48:29.612Z,22.89
2019-05-07T10:50:56.651Z,21.86
2019-05-07T10:53:23.713Z,22.61
2019-05-07T10:55:50.751Z,23.54
2019-05-07T10:58:17.808Z,24.36
2019-05-07T11:00:44.846Z,23.76
2019-05-07T11:03:13.820Z,22.65
2019-05-07T11:05:41.890Z,21.43
2019-05-07T11:08:09.452Z,21.09
2019-05-07T11:10:36.806Z,19.52
2019-05-07T11:13:04.159Z,20.67
2019-05-07T11:15:32.635Z,21.54
2019-05-07T11:18:02.717Z,22.61
2019-05-07T11:20:32.091Z,21.83
2019-05-07T11:22:59.544Z,22.29
2019-05-07T11:25:26.880Z,23.32
2019-05-07T11:27:53.950Z,23.83
2019-05-07T11:30:22.779Z,24.19
2019-05-07T11:32:52.060Z,25.83
2019-05-07T11:35:18.856Z,26.59
2019-05-07T11:37:46.212Z,25.74
2019-05-07T11:40:13.267Z,26.18
2019-05-07T11:42:42.655Z,26.12
2019-05-07T11:45:09.399Z,25.45
2019-05-07T11:47:36.434Z,24.63
2019-05-07T11:50:03.490Z,23.39
2019-05-07T11:52:35.163Z,22.90
2019-05-07T11:54:59.644Z,22.97
2019-05-07T11:57:27.005Z,23.99
2019-05-07T11:59:54.370Z,25.17
2019-05-07T12:02:22.646Z,26.06
2019-05-07T12:04:52.672Z,24.73
2019-05-07T12:07:21.858Z,21.94
2019-05-07T12:09:49.849Z,22.81
2019-05-07T12:12:17.960Z,21.44
2019-05-07T12:14:45.364Z,19.56
2019-05-07T12:17:12.699Z,17.79
2019-05-07T12:19:39.756Z,17.42
2019-05-07T12:22:07.040Z,17.91
2019-05-07T12:24:34.098Z,17.56
2019-05-07T12:27:02.622Z,17.65
2019-05-07T12:29:32.247Z,19.26
2019-05-07T12:31:59.698Z,19.67
2019-05-07T12:34:26.751Z,20.65
2019-05-07T12:36:53.793Z,22.24
2019-05-07T12:39:21.949Z,22.11
2019-05-07T12:41:49.122Z,23.00
2019-05-07T12:44:16.495Z,23.76
2019-05-07T12:46:43.540Z,25.36
2019-05-07T12:49:12.033Z,26.23
2019-05-07T12:51:39.670Z,26.42
2019-05-07T12:54:07.016Z,26.75
2019-05-07T12:56:34.394Z,27.33
2019-05-07T12:59:21.868Z,27.96
2019-05-07T13:01:52.107Z,28.12
2019-05-07T13:04:19.484Z,30.67
2019-05-07T13:06:46.536Z,28.10
2019-05-07T13:09:13.573Z,29.46
2019-05-07T13:11:42.493Z,28.09
2019-05-07T13:14:09.622Z,28.57
2019-05-07T13:16:36.673Z,29.10
2019-05-07T13:19:03.721Z,28.35
2019-05-07T13:21:31.933Z,28.67
2019-05-07T13:23:59.526Z,27.77
2019-05-07T13:26:26.908Z,27.97
2019-05-07T13:28:53.961Z,27.53
2019-05-07T13:31:22.741Z,27.99
2019-05-07T13:33:52.320Z,28.10
2019-05-07T13:36:18.976Z,27.97
2019-05-07T13:38:46.367Z,28.45
2019-05-07T13:41:13.702Z,29.08
2019-05-07T13:43:41.002Z,28.30
2019-05-07T13:46:08.310Z,27.86
2019-05-07T13:48:35.671Z,27.44
2019-05-07T13:51:03.035Z,27.54
2019-05-07T13:53:32.130Z,28.45
2019-05-07T13:55:59.163Z,28.51
2019-05-07T13:58:26.456Z,28.89
2019-05-07T14:00:53.772Z,30.11
2019-05-07T14:03:22.661Z,29.94
2019-05-07T14:05:51.589Z,30.35
2019-05-07T14:08:18.598Z,29.61
2019-05-07T14:10:46.998Z,29.25
2019-05-07T14:13:17.323Z,29.37
2019-05-07T14:15:43.080Z,28.78
2019-05-07T14:18:11.586Z,29.19
2019-05-07T14:20:39.064Z,30.17
2019-05-07T14:23:06.134Z,29.40
2019-05-07T14:25:33.164Z,29.58
2019-05-07T14:28:02.246Z,29.67
2019-05-07T14:30:29.393Z,30.00
2019-05-07T14:32:56.519Z,30.00
2019-05-07T14:35:23.560Z,30.54
2019-05-07T14:37:52.367Z,31.78
2019-05-07T14:40:19.541Z,31.89
2019-05-07T14:42:46.588Z,31.80
2019-05-07T14:45:13.867Z,32.89
2019-05-07T14:47:44.432Z,30.06
2019-05-07T14:50:09.675Z,31.02
2019-05-07T14:52:37.055Z,30.79
2019-05-07T14:55:05.350Z,30.98
2019-05-07T14:57:32.616Z,32.73
2019-05-07T15:00:00.018Z,32.83
2019-05-07T15:02:27.375Z,32.95
2019-05-07T15:04:54.752Z,31.64
2019-05-07T15:07:22.626Z,32.56
2019-05-07T15:09:51.836Z,34.16
2019-05-07T15:12:18.968Z,33.05
2019-05-07T15:14:46.306Z,32.17
2019-05-07T15:17:14.529Z,33.15
2019-05-07T15:19:42.729Z,33.03
2019-05-07T15:22:09.861Z,33.16
2019-05-07T15:24:52.970Z,33.11
2019-05-07T15:27:22.805Z,32.49
2019-05-07T15:29:54.445Z,33.44
2019-05-07T15:32:21.845Z,33.30
2019-05-07T15:34:52.544Z,33.70
2019-05-07T15:37:35.614Z,35.27
2019-05-07T15:40:07.125Z,32.72
2019-05-07T15:47:48.135Z,32.15
2019-05-07T15:50:23.040Z,31.95
2019-05-07T15:52:58.063Z,32.87
2019-05-07T15:55:19.288Z,33.04
2019-05-07T16:03:12.087Z,33.73
2019-05-07T16:05:42.496Z,34.64
2019-05-07T16:08:13.709Z,36.75
2019-05-07T16:10:53.149Z,34.36
2019-05-07T16:13:24.341Z,36.02
2019-05-07T16:16:05.706Z,34.69
2019-05-07T16:18:34.000Z,35.28
2019-05-07T16:21:14.239Z,34.88
2019-05-07T16:26:35.899Z,35.25
2019-05-07T16:31:37.269Z,34.61
2019-05-07T16:42:01.969Z,35.79
2019-05-07T16:47:22.950Z,35.94
2019-05-07T16:49:51.222Z,35.95
2019-05-07T16:52:22.373Z,36.61
2019-05-07T16:54:52.211Z,36.65
2019-05-07T16:57:28.515Z,36.98
2019-05-07T16:59:56.722Z,38.34
2019-05-07T17:02:25.899Z,37.93
2019-05-07T17:04:54.093Z,37.65
2019-05-07T17:07:28.084Z,37.65
2019-05-07T17:17:56.074Z,39.07
2019-05-07T17:20:23.126Z,38.77
2019-05-07T17:22:52.031Z,38.69
2019-05-07T17:25:22.322Z,39.26
2019-05-07T17:27:52.048Z,39.29
2019-05-07T17:30:18.943Z,39.58
2019-05-07T17:32:47.495Z,39.35
2019-05-07T17:35:17.951Z,39.57
2019-05-07T17:38:06.393Z,39.75
2019-05-07T17:40:27.406Z,39.80
2019-05-07T17:42:55.818Z,40.17
2019-05-07T17:45:28.206Z,40.23
2019-05-07T17:48:05.839Z,39.91
2019-05-07T17:50:34.036Z,40.96
2019-05-07T17:53:14.854Z,41.55
2019-05-07T17:55:42.361Z,41.89
2019-05-07T17:58:13.462Z,42.55
2019-05-07T18:00:42.108Z,41.87
2019-05-07T18:03:22.442Z,42.19
2019-05-07T18:05:51.832Z,42.55
2019-05-07T18:08:21.688Z,42.89
2019-05-07T18:16:17.182Z,43.47
2019-05-07T18:18:44.928Z,43.75
2019-05-07T18:21:12.675Z,43.37
2019-05-07T18:23:40.079Z,43.47
2019-05-07T18:28:58.527Z,44.31
2019-05-07T18:31:26.737Z,44.28
2019-05-07T18:33:58.345Z,44.33
2019-05-07T18:36:25.555Z,44.59
2019-05-07T18:39:01.682Z,44.64
2019-05-07T18:41:32.667Z,44.93
2019-05-07T18:44:12.200Z,44.88
2019-05-07T18:46:37.145Z,45.52
2019-05-07T18:49:09.336Z,44.82
2019-05-07T18:51:36.994Z,44.74
2019-05-07T18:54:04.267Z,44.78
2019-05-07T18:56:34.962Z,44.94
2019-05-07T18:59:06.341Z,45.70
2019-05-07T19:06:55.147Z,45.49
2019-05-07T19:12:13.145Z,45.94
2019-05-07T19:17:43.345Z,46.28
2019-05-07T19:20:12.307Z,46.54
2019-05-07T19:22:39.597Z,47.06
2019-05-07T19:25:06.822Z,47.22
2019-05-07T19:30:27.563Z,47.80
2019-05-07T19:32:59.705Z,48.36
2019-05-07T19:35:26.769Z,48.58
2019-05-07T19:37:54.496Z,48.74
2019-05-07T19:40:36.087Z,49.26
2019-05-07T19:43:05.329Z,49.26
2019-05-07T19:45:45.880Z,49.12
2019-05-07T19:48:18.150Z,49.15
2019-05-07T19:50:54.513Z,49.03
2019-05-07T19:53:23.782Z,49.25
2019-05-07T19:55:52.594Z,49.94
2019-05-07T19:58:22.964Z,50.71
2019-05-07T20:00:57.266Z,50.90
2019-05-07T20:08:48.514Z,51.56
2019-05-07T20:16:36.848Z,52.05
2019-05-07T20:19:13.962Z,52.85
2019-05-07T20:21:41.295Z,54.21
2019-05-07T20:24:22.844Z,55.32
2019-05-07T20:29:42.777Z,54.79
2019-05-07T20:32:10.343Z,54.05
2019-05-07T20:34:37.575Z,54.06
2019-05-07T20:37:04.942Z,54.84
2019-05-07T20:39:32.357Z,54.97
2019-05-07T20:41:59.379Z,55.25
2019-05-07T20:44:26.727Z,55.73
2019-05-07T20:46:54.037Z,55.28
2019-05-07T20:49:22.504Z,55.35
2019-05-07T20:51:49.705Z,54.99
2019-05-07T20:54:17.050Z,54.35
2019-05-07T20:56:46.639Z,53.23
2019-05-07T20:59:12.920Z,53.35
2019-05-07T21:01:41.953Z,53.10
2019-05-07T21:04:09.129Z,53.25
2019-05-07T21:06:36.165Z,53.55
2019-05-07T21:09:03.224Z,53.71
2019-05-07T21:11:32.482Z,53.71
2019-05-07T21:13:59.601Z,53.41
2019-05-07T21:16:26.932Z,53.47
2019-05-07T21:18:53.995Z,53.80
2019-05-07T21:21:21.895Z,53.57
2019-05-07T21:23:49.422Z,53.56
2019-05-07T21:26:16.758Z,53.67
2019-05-07T21:28:43.826Z,53.78
2019-05-07T21:31:11.933Z,53.81
2019-05-07T21:33:42.703Z,53.72
2019-05-07T21:36:09.357Z,54.08
2019-05-07T21:38:36.728Z,54.12
2019-05-07T21:41:04.064Z,54.11
2019-05-07T21:43:32.689Z,54.15
2019-05-07T21:46:02.301Z,53.66
2019-05-07T21:48:29.324Z,53.28
2019-05-07T21:50:56.606Z,53.29
2019-05-07T21:53:23.679Z,53.82
2019-05-07T21:55:59.895Z,53.13
2019-05-07T21:58:22.389Z,53.08
2019-05-07T22:00:49.065Z,53.16
2019-05-07T22:03:17.969Z,52.69
2019-05-07T22:05:45.025Z,53.37
2019-05-07T22:08:12.575Z,53.06
2019-05-07T22:10:40.007Z,53.14
2019-05-07T22:13:07.060Z,53.51
2019-05-07T22:15:34.099Z,53.52
2019-05-07T22:18:02.742Z,53.79
2019-05-07T22:20:31.973Z,53.61
2019-05-07T22:22:59.063Z,53.72
2019-05-07T22:25:26.114Z,53.50
2019-05-07T22:27:55.029Z,54.17
2019-05-07T22:30:23.226Z,53.55
2019-05-07T22:32:52.668Z,53.64
2019-05-07T22:35:19.705Z,54.11
2019-05-07T22:38:04.771Z,53.65
2019-05-07T22:40:36.092Z,53.47
2019-05-07T22:43:04.771Z,53.57
2019-05-07T22:45:32.295Z,54.04
2019-05-07T22:47:59.652Z,53.59
2019-05-07T22:50:26.992Z,53.72
2019-05-07T22:52:54.562Z,53.65
2019-05-07T22:55:21.991Z,53.43
2019-05-07T22:57:49.204Z,53.21
2019-05-07T23:00:16.500Z,53.34
2019-05-07T23:02:43.841Z,53.23
2019-05-07T23:05:12.222Z,53.03
2019-05-07T23:07:42.029Z,53.47
2019-05-07T23:10:08.620Z,53.69
2019-05-07T23:12:35.898Z,54.04
2019-05-07T23:15:02.956Z,53.58
2019-05-07T23:17:29.996Z,53.86
2019-05-07T23:19:57.388Z,54.36
2019-05-07T23:22:24.429Z,54.16
2019-05-07T23:24:52.124Z,53.89
2019-05-07T23:27:19.199Z,53.74
2019-05-07T23:29:46.519Z,53.21
2019-05-07T23:32:13.554Z,52.70
2019-05-07T23:34:40.862Z,52.63
2019-05-07T23:37:08.172Z,52.47
2019-05-07T23:39:35.471Z,52.55
2019-05-07T23:42:02.507Z,52.79
2019-05-07T23:44:29.565Z,52.84
2019-05-07T23:46:56.850Z,52.48
2019-05-07T23:49:24.152Z,52.66
2019-05-07T23:51:53.056Z,52.74
2019-05-07T23:54:22.668Z,52.36
2019-05-07T23:57:02.793Z,52.52
2019-05-07T23:59:18.486Z,52.51
